You are here

Stations

Station Name Date Time Temperature Relative Humidity Precipitation Wind Speed Wind Direction Create Custom Report Daily Report Hourly Report
Aberdeen VTcr 2019-19-06 1:45 72.3 99.50 0.00 0.00 NNW
Bee Lake 2019-19-06 1:45 72.7 96.90 0.00 0.07 SSE
Brooksville 2019-19-06 1:45 72.1 100.00 0.00 0.77 S
Brooksville2 VTso 2019-19-06 1:45 72.3 99.40 0.00
Brown Loam Exp Stn VT 2019-19-06 1:45 72.3 100.00 0.00 0.00 SSE
Brown Loam Exp. Stn. 2019-19-06 1:45 72.8 100.00 0.00 0.00 SE
Catladge Farm 2019-19-06 1:44
Clarksdale VTso 2019-19-06 1:45 73.4 95.00 0.00
Cleveland 2019-19-06 1:45 74.3 97.90 0.00 0.99 SW
Coastal Res & Ext Cnt 2019-19-06 1:45 79.6 90.90 0.00 2.75 SW
Home Cypress Farm 2019-19-06 1:45 73.7 96.20 0.00 0.88 S
Longwood VTso 2019-19-06 1:45 72.3 98.80 0.00
Lyon 2019-19-06 1:45 76.6 89.10 0.00 2.61 SW
Macon VTcr 2019-19-06 1:45 73.7 100.00 0.00 0.14 SSE
Money VT 2019-19-06 1:45 72.9 98.80 0.00 0.02 SE
Mound Bayou 2019-19-06 1:45 75.0 93.90 0.00 1.19 WSW
MSU North Farm Starkv 2019-19-06 1:45 72.8 98.90 0.00 0.00 NNW
Olive Branch VTcr 2019-19-06 1:45 71.7 98.50 0.00 0.57 E
Olive Branch2 VTso 2019-19-06 1:45 72.2 99.30 0.00
Onward VT 2019-19-06 1:45 74.2 97.60 0.00
Pontotoc AWS COOP 2019-19-06 1:44
Prairie 2019-19-06 1:45 72.2 100.00 0.00 0.43 W
Sidon 2019-19-06 1:45 74.0 96.90 0.00 0.02 ESE
Stoneville AWS 2019-19-06 1:45 73.5 95.50 0.00 1.19 WSW
Stoneville F10 2019-19-06 1:45 73.3 0.41 0.00 0.17 SW
Stoneville W 2019-19-06 1:45 73.3 98.60 0.00 0.01 SSW
Stoneville_SW 2019-19-06 1:45 74.5 94.60 0.00 2.24 SSW
Thighman 2019-19-06 1:45 73.6 94.20 0.00 0.51 SSE
Tippo VT 2019-19-06 1:45 73.8 98.80 0.00
Tribbett 2019-19-06 1:45 73.8 98.90 0.00 0.19 S
Verona 2019-19-06 1:45 72.3 99.30 0.00 1.03 SSE
Verona VTso 2019-19-06 1:45 71.8 98.60 0.00
Back to Top